createdAt,value
2023-04-05T00:00:54.518Z,5.70
2023-04-05T00:03:22.352Z,5.33
2023-04-05T00:05:51.059Z,5.03
2023-04-05T00:08:24.445Z,5.17
2023-04-05T00:10:52.304Z,5.63
2023-04-05T00:13:20.464Z,5.23
2023-04-05T00:15:49.175Z,5.27
2023-04-05T00:18:22.746Z,4.70
2023-04-05T00:21:14.609Z,4.73
2023-04-05T00:23:45.219Z,5.57
2023-04-05T00:26:13.401Z,5.40
2023-04-05T00:28:45.178Z,4.83
2023-04-05T00:31:12.771Z,4.63
2023-04-05T00:33:40.961Z,5.00
2023-04-05T00:36:36.388Z,5.13
2023-04-05T00:39:04.146Z,5.13
2023-04-05T00:41:32.253Z,5.70
2023-04-05T00:44:00.062Z,5.60
2023-04-05T00:46:28.480Z,5.27
2023-04-05T00:48:56.777Z,4.90
2023-04-05T00:51:24.665Z,5.10
2023-04-05T00:53:53.098Z,4.40
2023-04-05T00:56:21.914Z,5.80
2023-04-05T00:58:52.267Z,4.40
2023-04-05T01:01:20.635Z,4.50
2023-04-05T01:03:53.781Z,4.77
2023-04-05T01:06:38.622Z,4.00
2023-04-05T01:09:06.690Z,4.67
2023-04-05T01:11:34.275Z,4.30
2023-04-05T01:14:02.367Z,4.20
2023-04-05T01:16:30.453Z,3.90
2023-04-05T01:18:58.537Z,3.60
2023-04-05T01:21:40.696Z,3.37
2023-04-05T01:24:38.768Z,4.33
2023-04-05T01:27:15.173Z,3.50
2023-04-05T01:30:13.989Z,3.50
2023-04-05T01:33:02.663Z,3.37
2023-04-05T01:35:39.744Z,3.00
2023-04-05T01:38:11.620Z,3.30
2023-04-05T01:40:38.831Z,3.43
2023-04-05T01:43:16.030Z,2.83
2023-04-05T01:45:43.520Z,2.70
2023-04-05T01:48:11.099Z,3.53
2023-04-05T01:50:39.000Z,3.10
2023-04-05T01:53:08.248Z,3.07
2023-04-05T01:55:36.194Z,2.77
2023-04-05T01:58:04.084Z,2.63
2023-04-05T02:00:32.113Z,3.03
2023-04-05T02:02:59.918Z,2.60
2023-04-05T02:05:28.118Z,3.23
2023-04-05T02:07:55.833Z,3.43
2023-04-05T02:10:23.652Z,3.00
2023-04-05T02:12:51.683Z,2.80
2023-04-05T02:15:19.386Z,3.10
2023-04-05T02:17:47.479Z,3.00
2023-04-05T02:20:14.714Z,3.47
2023-04-05T02:22:45.616Z,3.37
2023-04-05T02:25:13.758Z,3.33
2023-04-05T02:27:41.615Z,2.80
2023-04-05T02:30:10.696Z,2.80
2023-04-05T02:32:38.680Z,3.00
2023-04-05T02:35:09.405Z,2.90
2023-04-05T02:37:37.430Z,3.20
2023-04-05T02:40:10.745Z,2.90
2023-04-05T02:42:39.628Z,3.53
2023-04-05T02:45:09.533Z,2.83
2023-04-05T02:47:37.774Z,3.27
2023-04-05T02:50:08.411Z,3.10
2023-04-05T02:52:37.599Z,3.07
2023-04-05T02:55:09.443Z,3.30
2023-04-05T02:57:37.214Z,3.37
2023-04-05T03:00:06.370Z,2.90
2023-04-05T03:02:34.716Z,3.20
2023-04-05T03:05:02.480Z,3.13
2023-04-05T03:07:30.637Z,2.97
2023-04-05T03:09:58.688Z,2.50
2023-04-05T03:12:26.764Z,3.27
2023-04-05T03:14:54.858Z,2.77
2023-04-05T03:17:22.821Z,2.60
2023-04-05T03:19:50.487Z,2.80
2023-04-05T03:22:18.665Z,2.93
2023-04-05T03:24:46.719Z,2.80
2023-04-05T03:27:15.142Z,2.80
2023-04-05T03:29:43.750Z,2.87
2023-04-05T03:32:12.335Z,2.90
2023-04-05T03:34:40.272Z,2.77
2023-04-05T03:37:08.290Z,2.77
2023-04-05T03:39:36.654Z,2.07
2023-04-05T03:42:05.395Z,2.80
2023-04-05T03:44:33.823Z,2.47
2023-04-05T03:47:01.908Z,2.23
2023-04-05T03:49:29.467Z,2.60
2023-04-05T03:51:57.219Z,2.23
2023-04-05T03:54:24.951Z,2.27
2023-04-05T03:56:53.082Z,2.73
2023-04-05T03:59:20.949Z,2.20
2023-04-05T04:01:48.631Z,2.20
2023-04-05T04:04:16.329Z,2.60
2023-04-05T04:06:43.856Z,2.53
2023-04-05T04:09:14.565Z,2.10
2023-04-05T04:11:42.671Z,2.30
2023-04-05T04:14:10.452Z,2.40
2023-04-05T04:16:38.574Z,2.60
2023-04-05T04:19:06.788Z,2.57
2023-04-05T04:21:35.939Z,2.60
2023-04-05T04:24:04.100Z,2.37
2023-04-05T04:26:37.998Z,2.30
2023-04-05T04:29:06.844Z,2.87
2023-04-05T04:31:34.382Z,2.70
2023-04-05T04:34:03.446Z,2.23
2023-04-05T04:36:37.100Z,2.90
2023-04-05T04:39:08.173Z,2.83
2023-04-05T04:41:36.072Z,2.80
2023-04-05T04:44:06.679Z,2.70
2023-04-05T04:46:42.924Z,2.67
2023-04-05T04:49:11.315Z,2.60
2023-04-05T04:51:40.253Z,2.60
2023-04-05T04:54:08.539Z,3.07
2023-04-05T04:56:36.293Z,2.07
2023-04-05T04:59:04.316Z,2.13
2023-04-05T05:01:34.021Z,2.17
2023-04-05T05:04:03.496Z,2.00
2023-04-05T05:06:31.413Z,2.80
2023-04-05T05:08:59.554Z,2.20
2023-04-05T05:11:29.042Z,2.47
2023-04-05T05:13:57.012Z,2.40
2023-04-05T05:16:25.314Z,3.13
2023-04-05T05:18:56.037Z,2.20
2023-04-05T05:21:23.964Z,2.00
2023-04-05T05:23:51.925Z,2.27
2023-04-05T05:26:20.120Z,2.53
2023-04-05T05:28:49.686Z,2.87
2023-04-05T05:31:18.179Z,2.73
2023-04-05T05:33:49.553Z,2.80
2023-04-05T05:36:20.207Z,3.17
2023-04-05T05:38:49.196Z,2.87
2023-04-05T05:41:17.528Z,3.27
2023-04-05T05:43:45.228Z,3.13
2023-04-05T05:46:13.760Z,2.73
2023-04-05T05:48:42.142Z,2.77
2023-04-05T05:51:10.100Z,2.90
2023-04-05T05:53:38.152Z,2.70
2023-04-05T05:56:06.581Z,2.83
2023-04-05T05:58:34.279Z,2.50
2023-04-05T06:01:03.731Z,2.70
2023-04-05T06:03:31.683Z,4.33
2023-04-05T06:05:59.757Z,4.47
2023-04-05T06:08:29.849Z,4.10
2023-04-05T06:10:57.914Z,3.67
2023-04-05T06:13:25.656Z,2.67
2023-04-05T06:15:53.701Z,3.13
2023-04-05T06:18:21.763Z,2.03
2023-04-05T06:20:50.701Z,2.57
2023-04-05T06:23:18.876Z,2.80
2023-04-05T06:25:46.500Z,2.90
2023-04-05T06:28:14.593Z,3.43
2023-04-05T06:30:42.761Z,3.20
2023-04-05T06:33:10.589Z,2.90
2023-04-05T06:35:38.578Z,2.50
2023-04-05T06:38:06.619Z,2.43
2023-04-05T06:40:34.281Z,2.43
2023-04-05T06:43:02.395Z,2.50
2023-04-05T06:45:30.412Z,2.20
2023-04-05T06:47:58.289Z,2.30
2023-04-05T06:50:26.120Z,2.20
2023-04-05T06:52:53.923Z,2.20
2023-04-05T06:55:22.115Z,2.40
2023-04-05T06:57:50.314Z,2.27
2023-04-05T07:00:19.040Z,1.83
2023-04-05T07:02:46.918Z,1.77
2023-04-05T07:05:15.196Z,2.00
2023-04-05T07:07:43.365Z,1.83
2023-04-05T07:10:11.475Z,1.70
2023-04-05T07:12:43.124Z,1.80
2023-04-05T07:15:13.513Z,2.40
2023-04-05T07:17:41.228Z,2.73
2023-04-05T07:20:10.973Z,1.97
2023-04-05T07:22:39.006Z,1.90
2023-04-05T07:25:10.481Z,2.00
2023-04-05T07:27:39.956Z,2.03
2023-04-05T07:30:10.840Z,2.10
2023-04-05T07:32:40.009Z,2.17
2023-04-05T07:35:08.633Z,2.20
2023-04-05T07:37:36.284Z,1.93
2023-04-05T07:40:06.489Z,2.20
2023-04-05T07:42:34.214Z,3.10
2023-04-05T07:45:01.893Z,2.20
2023-04-05T07:47:30.093Z,2.27
2023-04-05T07:49:58.084Z,2.60
2023-04-05T07:52:26.290Z,1.80
2023-04-05T07:54:56.893Z,1.97
2023-04-05T07:57:25.068Z,2.13
2023-04-05T07:59:55.203Z,1.93
2023-04-05T08:02:23.300Z,2.03
2023-04-05T08:04:50.856Z,2.00
2023-04-05T08:07:18.682Z,2.20
2023-04-05T08:09:46.850Z,1.90
2023-04-05T08:12:15.393Z,1.90
2023-04-05T08:14:43.507Z,1.93
2023-04-05T08:17:11.538Z,2.20
2023-04-05T08:19:39.497Z,1.90
2023-04-05T08:22:07.589Z,2.20
2023-04-05T08:24:35.814Z,2.07
2023-04-05T08:27:03.491Z,2.87
2023-04-05T08:29:31.475Z,1.93
2023-04-05T08:31:59.228Z,2.30
2023-04-05T08:34:27.239Z,2.10
2023-04-05T08:36:58.783Z,2.17
2023-04-05T08:39:26.945Z,2.07
2023-04-05T08:42:42.220Z,2.10
2023-04-05T08:45:11.478Z,2.10
2023-04-05T08:47:42.012Z,2.00
2023-04-05T08:50:13.921Z,2.23
2023-04-05T08:52:43.236Z,1.83
2023-04-05T08:55:11.603Z,2.30
2023-04-05T08:57:40.585Z,1.67
2023-04-05T09:00:11.969Z,2.40
2023-04-05T09:02:39.483Z,1.90
2023-04-05T09:05:11.214Z,2.03
2023-04-05T09:07:39.394Z,2.27
2023-04-05T09:10:06.815Z,3.77
2023-04-05T09:12:35.079Z,2.20
2023-04-05T09:15:03.519Z,2.50
2023-04-05T09:17:32.425Z,2.07
2023-04-05T09:20:00.189Z,2.07
2023-04-05T09:22:27.501Z,2.33
2023-04-05T09:24:55.077Z,2.53
2023-04-05T09:27:23.130Z,2.67
2023-04-05T09:29:51.380Z,2.30
2023-04-05T09:32:21.524Z,2.50
2023-04-05T09:34:50.286Z,2.40
2023-04-05T09:37:20.119Z,2.07
2023-04-05T09:39:49.649Z,2.27
2023-04-05T09:42:17.627Z,2.50
2023-04-05T09:44:57.844Z,2.30
2023-04-05T09:47:31.394Z,2.20
2023-04-05T09:49:59.494Z,2.70
2023-04-05T09:52:27.087Z,2.30
2023-04-05T09:54:56.753Z,2.33
2023-04-05T09:57:27.612Z,2.67
2023-04-05T09:59:55.838Z,2.63
2023-04-05T10:02:24.122Z,2.20
2023-04-05T10:04:51.751Z,2.23
2023-04-05T10:07:20.532Z,3.03
2023-04-05T10:09:48.792Z,2.30
2023-04-05T10:12:29.703Z,2.77
2023-04-05T10:14:57.955Z,2.60
2023-04-05T10:17:26.417Z,2.87
2023-04-05T10:20:08.899Z,2.67
2023-04-05T10:22:57.184Z,3.10
2023-04-05T10:25:45.388Z,2.77
2023-04-05T10:28:35.350Z,2.60
2023-04-05T10:31:26.987Z,2.50
2023-04-05T10:34:09.359Z,2.90
2023-04-05T10:37:01.050Z,2.90
2023-04-05T10:39:41.248Z,3.07
2023-04-05T10:42:12.685Z,2.90
2023-04-05T10:44:40.332Z,3.10
2023-04-05T10:47:08.075Z,2.73
2023-04-05T10:49:43.834Z,2.73
2023-04-05T10:52:11.312Z,2.73
2023-04-05T10:54:39.100Z,2.90
2023-04-05T10:57:09.948Z,3.03
2023-04-05T10:59:42.220Z,2.70
2023-04-05T11:02:09.757Z,2.60
2023-04-05T11:04:39.533Z,2.47
2023-04-05T11:07:11.707Z,3.10
2023-04-05T11:09:39.329Z,2.17
2023-04-05T11:12:06.629Z,3.53
2023-04-05T11:14:41.935Z,3.20
2023-04-05T11:17:27.344Z,3.00
2023-04-05T11:20:05.647Z,3.00
2023-04-05T11:22:49.308Z,3.63
2023-04-05T11:25:23.792Z,3.13
2023-04-05T11:28:01.803Z,3.00
2023-04-05T11:30:50.878Z,3.37
2023-04-05T11:33:39.310Z,2.70
2023-04-05T11:36:07.947Z,2.63
2023-04-05T11:38:36.287Z,2.67
2023-04-05T11:41:12.362Z,2.90
2023-04-05T11:43:42.127Z,2.70
2023-04-05T11:46:15.553Z,2.77
2023-04-05T11:48:43.293Z,2.90
2023-04-05T11:51:10.948Z,2.80
2023-04-05T11:53:38.681Z,4.23
2023-04-05T11:56:13.848Z,2.93
2023-04-05T11:58:41.926Z,3.23
2023-04-05T12:01:17.006Z,3.10
2023-04-05T12:03:44.715Z,4.03
2023-04-05T12:06:12.476Z,3.30
2023-04-05T12:08:43.389Z,3.50
2023-04-05T12:11:12.610Z,4.27
2023-04-05T12:13:39.853Z,4.20
2023-04-05T12:16:10.878Z,3.83
2023-04-05T12:18:38.281Z,4.00
2023-04-05T12:21:07.843Z,3.50
2023-04-05T12:23:35.668Z,3.07
2023-04-05T12:26:04.187Z,3.20
2023-04-05T12:29:13.204Z,3.00
2023-04-05T12:31:45.301Z,2.97
2023-04-05T12:34:15.538Z,3.27
2023-04-05T12:36:46.308Z,3.47
2023-04-05T12:39:15.472Z,3.05
2023-04-05T12:41:43.478Z,3.08
2023-04-05T12:44:17.767Z,3.00
2023-04-05T12:46:47.854Z,2.90
2023-04-05T12:49:19.166Z,2.85
2023-04-05T12:51:46.780Z,2.55
2023-04-05T12:54:23.623Z,3.30
2023-04-05T12:56:51.710Z,3.10
2023-04-05T12:59:19.255Z,3.27
2023-04-05T13:01:46.976Z,2.78
2023-04-05T13:04:16.504Z,3.28
2023-04-05T13:06:47.653Z,2.78
2023-04-05T13:09:15.895Z,2.85
2023-04-05T13:11:46.206Z,2.90
2023-04-05T13:14:15.018Z,2.93
2023-04-05T13:16:42.868Z,2.97
2023-04-05T13:19:11.983Z,4.20
2023-04-05T13:21:39.874Z,3.23
2023-04-05T13:24:12.301Z,3.10
2023-04-05T13:26:40.845Z,2.80
2023-04-05T13:29:08.802Z,2.67
2023-04-05T13:31:36.793Z,2.88
2023-04-05T13:34:04.252Z,2.75
2023-04-05T13:36:32.137Z,3.15
2023-04-05T13:39:00.004Z,2.58
2023-04-05T13:41:30.862Z,2.92
2023-04-05T13:44:01.542Z,2.65
2023-04-05T13:46:30.121Z,2.53
2023-04-05T13:48:58.249Z,2.22
2023-04-05T13:51:31.402Z,2.72
2023-04-05T13:53:59.818Z,2.40
2023-04-05T13:56:27.968Z,2.85
2023-04-05T13:58:55.733Z,2.40
2023-04-05T14:01:23.696Z,2.95
2023-04-05T14:03:52.165Z,2.63
2023-04-05T14:06:20.346Z,2.70
2023-04-05T14:08:48.432Z,2.67
2023-04-05T14:11:16.117Z,3.40
2023-04-05T14:13:44.194Z,3.15
2023-04-05T14:16:12.447Z,2.55
2023-04-05T14:18:40.473Z,3.10
2023-04-05T14:21:08.797Z,2.50
2023-04-05T14:23:37.096Z,2.90
2023-04-05T14:26:04.520Z,2.80
2023-04-05T14:28:33.074Z,2.97
2023-04-05T14:31:00.642Z,2.50
2023-04-05T14:33:29.324Z,2.42
2023-04-05T14:35:57.533Z,3.17
2023-04-05T14:38:26.654Z,2.90
2023-04-05T14:40:54.988Z,2.72
2023-04-05T14:43:22.776Z,2.90
2023-04-05T14:45:51.001Z,2.60
2023-04-05T14:48:19.328Z,2.35
2023-04-05T14:50:47.450Z,2.80
2023-04-05T14:53:16.240Z,2.35
2023-04-05T14:55:44.416Z,2.70
2023-04-05T14:58:14.370Z,2.95
2023-04-05T15:00:42.989Z,2.40
2023-04-05T15:03:10.868Z,2.65
2023-04-05T15:05:39.029Z,2.72
2023-04-05T15:08:06.844Z,2.70
2023-04-05T15:10:34.510Z,2.97
2023-04-05T15:13:02.659Z,3.10
2023-04-05T15:15:31.359Z,3.10
2023-04-05T15:17:59.668Z,3.23
2023-04-05T15:20:30.941Z,3.93
2023-04-05T15:22:59.221Z,3.07
2023-04-05T15:25:26.867Z,3.63
2023-04-05T15:27:55.501Z,2.93
2023-04-05T15:30:23.850Z,3.93
2023-04-05T15:32:53.999Z,3.63
2023-04-05T15:35:21.969Z,3.60
2023-04-05T15:37:50.722Z,3.13
2023-04-05T15:40:18.851Z,3.27
2023-04-05T15:42:46.368Z,3.13
2023-04-05T15:45:13.984Z,3.10
2023-04-05T15:47:42.148Z,3.03
2023-04-05T15:50:10.429Z,3.20
2023-04-05T15:52:38.060Z,3.20
2023-04-05T15:55:07.718Z,3.47
2023-04-05T15:57:35.655Z,2.80
2023-04-05T16:00:03.965Z,3.33
2023-04-05T16:02:31.617Z,3.13
2023-04-05T16:04:59.863Z,2.50
2023-04-05T16:07:28.905Z,2.50
2023-04-05T16:09:56.716Z,2.60
2023-04-05T16:12:24.522Z,2.77
2023-04-05T16:14:57.022Z,2.70
2023-04-05T16:17:25.666Z,2.67
2023-04-05T16:19:55.607Z,2.80
2023-04-05T16:22:25.100Z,2.40
2023-04-05T16:24:54.780Z,2.57
2023-04-05T16:27:23.011Z,2.10
2023-04-05T16:29:51.280Z,2.07
2023-04-05T16:32:19.640Z,2.20
2023-04-05T16:34:47.293Z,2.27
2023-04-05T16:37:15.045Z,2.20
2023-04-05T16:39:42.835Z,2.30
2023-04-05T16:42:10.690Z,2.43
2023-04-05T16:44:38.839Z,2.53
2023-04-05T16:47:07.214Z,2.00
2023-04-05T16:49:37.662Z,2.10
2023-04-05T16:52:05.488Z,1.80
2023-04-05T16:54:33.543Z,1.90
2023-04-05T16:57:01.263Z,2.50
2023-04-05T16:59:29.266Z,2.40
2023-04-05T17:01:57.537Z,2.47
2023-04-05T17:04:25.569Z,2.10
2023-04-05T17:06:53.360Z,2.00
2023-04-05T17:09:23.194Z,2.20
2023-04-05T17:11:51.384Z,2.07
2023-04-05T17:14:20.079Z,2.13
2023-04-05T17:16:48.579Z,1.73
2023-04-05T17:19:17.385Z,2.27
2023-04-05T17:21:47.419Z,2.53
2023-04-05T17:24:17.353Z,2.20
2023-04-05T17:26:44.783Z,2.03
2023-04-05T17:29:19.674Z,2.13
2023-04-05T17:31:47.429Z,2.23
2023-04-05T17:34:16.836Z,2.50
2023-04-05T17:36:44.154Z,2.30
2023-04-05T17:39:12.259Z,1.70
2023-04-05T17:41:40.249Z,1.80
2023-04-05T17:44:08.058Z,1.77
2023-04-05T17:46:42.735Z,1.87
2023-04-05T17:49:14.351Z,1.80
2023-04-05T17:51:41.997Z,1.97
2023-04-05T17:54:12.366Z,1.77
2023-04-05T17:56:40.159Z,1.97
2023-04-05T17:59:08.230Z,1.97
2023-04-05T18:01:38.001Z,1.57
2023-04-05T18:04:06.898Z,1.60
2023-04-05T18:06:35.398Z,2.17
2023-04-05T18:09:08.684Z,2.30
2023-04-05T18:11:36.695Z,2.20
2023-04-05T18:14:05.458Z,2.77
2023-04-05T18:16:33.917Z,3.00
2023-04-05T18:19:02.411Z,2.20
2023-04-05T18:21:31.068Z,4.17
2023-04-05T18:23:58.946Z,2.00
2023-04-05T18:26:30.549Z,1.80
2023-04-05T18:29:00.231Z,2.13
2023-04-05T18:31:29.109Z,3.67
2023-04-05T18:33:57.294Z,2.20
2023-04-05T18:36:27.984Z,2.07
2023-04-05T18:38:58.032Z,2.87
2023-04-05T18:41:26.777Z,2.53
2023-04-05T18:43:55.238Z,2.30
2023-04-05T18:46:23.729Z,2.03
2023-04-05T18:48:54.859Z,2.20
2023-04-05T18:51:22.631Z,3.07
2023-04-05T18:53:49.640Z,3.30
2023-04-05T18:56:17.579Z,2.80
2023-04-05T18:58:45.697Z,2.00
2023-04-05T19:01:16.138Z,2.20
2023-04-05T19:03:45.240Z,2.37
2023-04-05T19:06:12.690Z,2.83
2023-04-05T19:08:40.304Z,2.57
2023-04-05T19:11:08.233Z,2.53
2023-04-05T19:13:36.017Z,2.23
2023-04-05T19:16:03.282Z,2.40
2023-04-05T19:18:31.018Z,2.63
2023-04-05T19:21:21.283Z,2.63
2023-04-05T19:23:49.901Z,3.40
2023-04-05T19:26:20.653Z,2.90
2023-04-05T19:28:49.837Z,2.80
2023-04-05T19:31:17.592Z,2.93
2023-04-05T19:33:45.406Z,3.53
2023-04-05T19:36:13.541Z,2.70
2023-04-05T19:38:40.826Z,2.53
2023-04-05T19:41:09.073Z,2.70
2023-04-05T19:43:37.006Z,2.70
2023-04-05T19:46:04.808Z,2.90
2023-04-05T19:48:39.814Z,3.30
2023-04-05T19:51:08.876Z,3.47
2023-04-05T19:53:38.848Z,3.70
2023-04-05T19:56:09.904Z,3.50
2023-04-05T19:58:37.572Z,3.77
2023-04-05T20:01:05.976Z,4.50
2023-04-05T20:03:40.566Z,5.03
2023-04-05T20:06:17.176Z,4.90
2023-04-05T20:08:48.243Z,6.13
2023-04-05T20:11:45.103Z,6.00
2023-04-05T20:14:12.985Z,5.93
2023-04-05T20:16:41.035Z,5.00
2023-04-05T20:19:09.705Z,4.70
2023-04-05T20:21:40.855Z,4.50
2023-04-05T20:24:09.212Z,4.10
2023-04-05T20:26:37.052Z,5.07
2023-04-05T20:29:07.722Z,4.77
2023-04-05T20:31:39.150Z,5.20
2023-04-05T20:34:09.703Z,4.40
2023-04-05T20:36:39.078Z,3.97
2023-04-05T20:39:08.062Z,4.20
2023-04-05T20:41:36.369Z,3.90
2023-04-05T20:44:04.525Z,4.20
2023-04-05T20:46:32.548Z,4.00
2023-04-05T20:49:03.777Z,4.10
2023-04-05T20:51:31.811Z,4.50
2023-04-05T20:53:59.380Z,4.33
2023-04-05T20:56:27.279Z,3.83
2023-04-05T20:58:55.928Z,4.43
2023-04-05T21:01:24.143Z,4.30
2023-04-05T21:03:53.411Z,3.43
2023-04-05T21:06:21.732Z,3.50
2023-04-05T21:08:49.496Z,3.77
2023-04-05T21:11:17.664Z,3.23
2023-04-05T21:13:45.686Z,3.23
2023-04-05T21:16:13.862Z,3.73
2023-04-05T21:18:41.615Z,3.10
2023-04-05T21:21:09.289Z,3.20
2023-04-05T21:23:37.602Z,3.33
2023-04-05T21:26:06.197Z,2.87
2023-04-05T21:28:34.043Z,3.60
2023-04-05T21:31:02.194Z,3.67
2023-04-05T21:33:30.644Z,3.40
2023-04-05T21:35:58.871Z,3.60
2023-04-05T21:38:27.242Z,3.57
2023-04-05T21:40:55.723Z,3.53
2023-04-05T21:43:26.308Z,4.10
2023-04-05T21:45:54.024Z,3.60
2023-04-05T21:48:21.729Z,4.10
2023-04-05T21:50:49.500Z,3.93
2023-04-05T21:53:17.195Z,3.87
2023-04-05T21:55:45.509Z,3.97
2023-04-05T21:58:13.567Z,3.67
2023-04-05T22:00:41.813Z,4.20
2023-04-05T22:03:10.207Z,3.10
2023-04-05T22:05:39.054Z,4.10
2023-04-05T22:08:07.584Z,3.30
2023-04-05T22:10:37.177Z,3.80
2023-04-05T22:13:04.840Z,4.30
2023-04-05T22:15:33.199Z,3.50
2023-04-05T22:18:00.975Z,3.90
2023-04-05T22:20:29.277Z,3.87
2023-04-05T22:22:57.130Z,3.17
2023-04-05T22:25:26.446Z,3.27
2023-04-05T22:27:59.858Z,3.60
2023-04-05T22:30:28.598Z,3.53
2023-04-05T22:32:56.943Z,3.33
2023-04-05T22:35:25.275Z,3.50
2023-04-05T22:37:53.044Z,3.60
2023-04-05T22:40:26.998Z,3.67
2023-04-05T22:42:55.019Z,3.73
2023-04-05T22:45:26.760Z,3.77
2023-04-05T22:47:54.356Z,3.80
2023-04-05T22:50:22.573Z,3.70
2023-04-05T22:52:50.768Z,3.40
2023-04-05T22:55:18.929Z,3.57
2023-04-05T22:57:46.630Z,3.63
2023-04-05T23:00:17.573Z,4.13
2023-04-05T23:02:45.710Z,3.70
2023-04-05T23:05:13.880Z,3.80
2023-04-05T23:07:42.025Z,3.77
2023-04-05T23:10:11.780Z,3.07
2023-04-05T23:12:39.755Z,3.43
2023-04-05T23:15:10.192Z,3.93
2023-04-05T23:17:38.640Z,3.87
2023-04-05T23:20:07.584Z,2.87
2023-04-05T23:22:36.172Z,3.77
2023-04-05T23:25:27.215Z,3.47
2023-04-05T23:27:55.426Z,3.40
2023-04-05T23:30:22.591Z,3.57
2023-04-05T23:32:50.551Z,3.67
2023-04-05T23:35:18.639Z,3.63
2023-04-05T23:37:46.792Z,3.90
2023-04-05T23:40:15.106Z,4.03
2023-04-05T23:42:43.170Z,4.50
2023-04-05T23:45:12.564Z,4.30
2023-04-05T23:47:40.608Z,3.83
2023-04-05T23:50:11.239Z,4.47
2023-04-05T23:52:39.368Z,4.27
2023-04-05T23:55:08.692Z,4.00
2023-04-05T23:57:36.444Z,4.40
